createdAt,value
2023-05-04T00:02:19.281Z,9.50
2023-05-04T00:04:46.293Z,9.40
2023-05-04T00:07:13.534Z,9.40
2023-05-04T00:09:40.338Z,9.40
2023-05-04T00:12:08.072Z,9.40
2023-05-04T00:14:35.741Z,9.40
2023-05-04T00:17:04.914Z,9.50
2023-05-04T00:19:32.844Z,9.40
2023-05-04T00:21:59.622Z,9.40
2023-05-04T00:24:26.588Z,9.40
2023-05-04T00:26:53.262Z,9.30
2023-05-04T00:29:20.048Z,9.30
2023-05-04T00:31:47.409Z,9.20
2023-05-04T00:34:15.730Z,9.10
2023-05-04T00:36:46.490Z,9.10
2023-05-04T00:39:13.961Z,9.10
2023-05-04T00:41:40.773Z,9.00
2023-05-04T00:44:07.836Z,9.10
2023-05-04T00:46:37.464Z,9.10
2023-05-04T00:49:04.479Z,9.00
2023-05-04T00:51:31.684Z,9.10
2023-05-04T00:53:59.042Z,9.10
2023-05-04T00:56:26.269Z,9.10
2023-05-04T00:58:54.558Z,9.10
2023-05-04T01:01:22.398Z,9.10
2023-05-04T01:03:53.929Z,9.10
2023-05-04T01:06:52.654Z,9.00
2023-05-04T01:09:28.480Z,9.00
2023-05-04T01:12:06.923Z,9.00
2023-05-04T01:14:35.654Z,9.00
2023-05-04T01:17:07.494Z,8.90
2023-05-04T01:19:35.906Z,8.90
2023-05-04T01:22:03.893Z,8.80
2023-05-04T01:24:31.906Z,8.80
2023-05-04T01:27:17.377Z,8.80
2023-05-04T01:29:52.475Z,8.70
2023-05-04T01:32:21.116Z,8.70
2023-05-04T01:34:48.451Z,8.60
2023-05-04T01:37:15.419Z,8.70
2023-05-04T01:39:42.185Z,8.60
2023-05-04T01:42:09.000Z,8.60
2023-05-04T01:44:36.074Z,8.60
2023-05-04T01:47:03.264Z,8.50
2023-05-04T01:49:30.108Z,8.60
2023-05-04T01:51:57.073Z,8.60
2023-05-04T01:54:24.930Z,8.60
2023-05-04T01:56:51.863Z,8.60
2023-05-04T01:59:18.651Z,8.60
2023-05-04T02:01:45.475Z,8.60
2023-05-04T02:04:12.431Z,8.60
2023-05-04T02:06:39.295Z,8.50
2023-05-04T02:09:06.245Z,8.50
2023-05-04T02:11:33.273Z,8.40
2023-05-04T02:14:00.358Z,8.40
2023-05-04T02:16:27.133Z,8.50
2023-05-04T02:18:53.928Z,8.50
2023-05-04T02:21:21.602Z,8.40
2023-05-04T02:23:48.484Z,8.40
2023-05-04T02:26:15.259Z,8.40
2023-05-04T02:28:42.008Z,8.40
2023-05-04T02:31:09.274Z,8.40
2023-05-04T02:33:36.426Z,8.40
2023-05-04T02:36:06.322Z,8.40
2023-05-04T02:38:33.341Z,8.40
2023-05-04T02:41:00.052Z,8.40
2023-05-04T02:43:27.015Z,8.40
2023-05-04T02:45:54.006Z,8.40
2023-05-04T02:48:20.902Z,8.30
2023-05-04T02:50:48.157Z,8.30
2023-05-04T02:53:14.930Z,8.20
2023-05-04T02:55:41.882Z,8.20
2023-05-04T02:58:08.841Z,8.20
2023-05-04T03:00:35.614Z,8.20
2023-05-04T03:03:02.367Z,8.20
2023-05-04T03:05:30.360Z,8.20
2023-05-04T03:07:57.228Z,8.20
2023-05-04T03:10:24.172Z,8.10
2023-05-04T03:12:51.044Z,8.10
2023-05-04T03:15:17.823Z,8.10
2023-05-04T03:17:44.727Z,8.10
2023-05-04T03:20:12.799Z,8.00
2023-05-04T03:22:41.039Z,8.10
2023-05-04T03:25:08.728Z,8.10
2023-05-04T03:27:35.556Z,8.00
2023-05-04T03:30:02.920Z,8.00
2023-05-04T03:32:29.934Z,8.00
2023-05-04T03:34:56.878Z,8.00
2023-05-04T03:37:25.135Z,8.00
2023-05-04T03:39:51.988Z,7.90
2023-05-04T03:42:18.788Z,7.90
2023-05-04T03:44:47.289Z,7.90
2023-05-04T03:47:15.146Z,7.90
2023-05-04T03:49:42.048Z,7.90
2023-05-04T03:52:08.912Z,7.80
2023-05-04T03:54:37.434Z,7.90
2023-05-04T03:57:04.441Z,7.80
2023-05-04T03:59:32.414Z,7.80
2023-05-04T04:02:02.302Z,7.80
2023-05-04T04:04:29.967Z,7.80
2023-05-04T04:06:57.455Z,7.80
2023-05-04T04:09:24.805Z,7.90
2023-05-04T04:11:51.793Z,7.90
2023-05-04T04:14:18.570Z,8.00
2023-05-04T04:16:45.418Z,8.10
2023-05-04T04:19:12.253Z,8.10
2023-05-04T04:21:39.097Z,8.20
2023-05-04T04:24:06.085Z,8.20
2023-05-04T04:26:33.362Z,8.20
2023-05-04T04:29:00.160Z,8.30
2023-05-04T04:31:27.085Z,8.40
2023-05-04T04:33:53.918Z,8.40
2023-05-04T04:36:20.750Z,8.50
2023-05-04T04:38:47.692Z,8.60
2023-05-04T04:41:14.667Z,8.70
2023-05-04T04:43:41.506Z,8.70
2023-05-04T04:46:08.214Z,8.80
2023-05-04T04:48:35.005Z,8.80
2023-05-04T04:51:01.895Z,8.90
2023-05-04T04:53:28.671Z,9.00
2023-05-04T04:55:55.473Z,9.00
2023-05-04T04:58:22.180Z,9.10
2023-05-04T05:00:49.037Z,9.10
2023-05-04T05:03:15.963Z,9.20
2023-05-04T05:05:42.841Z,9.20
2023-05-04T05:08:09.584Z,9.20
2023-05-04T05:10:38.657Z,9.20
2023-05-04T05:13:06.804Z,9.30
2023-05-04T05:15:33.707Z,9.30
2023-05-04T05:18:00.846Z,9.30
2023-05-04T05:20:27.972Z,9.30
2023-05-04T05:22:55.142Z,9.20
2023-05-04T05:25:21.990Z,9.30
2023-05-04T05:27:48.847Z,9.30
2023-05-04T05:30:15.889Z,9.50
2023-05-04T05:32:42.937Z,9.50
2023-05-04T05:35:09.983Z,9.60
2023-05-04T05:37:36.769Z,9.60
2023-05-04T05:40:07.838Z,9.70
2023-05-04T05:42:36.011Z,9.70
2023-05-04T05:45:04.424Z,9.90
2023-05-04T05:47:31.301Z,9.90
2023-05-04T05:49:58.105Z,10.00
2023-05-04T05:52:25.135Z,10.00
2023-05-04T05:54:51.886Z,10.00
2023-05-04T05:57:18.735Z,10.10
2023-05-04T05:59:45.733Z,10.10
2023-05-04T06:02:14.897Z,10.20
2023-05-04T06:04:42.546Z,10.30
2023-05-04T06:07:09.400Z,10.30
2023-05-04T06:09:36.576Z,10.50
2023-05-04T06:12:04.941Z,10.70
2023-05-04T06:14:31.765Z,10.90
2023-05-04T06:16:58.560Z,11.00
2023-05-04T06:19:26.791Z,11.20
2023-05-04T06:21:53.784Z,11.30
2023-05-04T06:24:21.691Z,11.40
2023-05-04T06:26:48.615Z,11.60
2023-05-04T06:29:15.389Z,11.60
2023-05-04T06:31:42.255Z,11.70
2023-05-04T06:34:09.015Z,11.70
2023-05-04T06:36:37.337Z,11.70
2023-05-04T06:39:04.149Z,11.80
2023-05-04T06:41:31.728Z,11.90
2023-05-04T06:43:59.880Z,12.10
2023-05-04T06:46:27.234Z,12.20
2023-05-04T06:48:54.502Z,12.30
2023-05-04T06:51:31.864Z,12.40
2023-05-04T06:54:00.199Z,12.50
2023-05-04T06:56:26.876Z,12.50
2023-05-04T06:58:53.664Z,12.60
2023-05-04T07:01:20.774Z,12.70
2023-05-04T07:03:48.164Z,12.70
2023-05-04T07:06:15.018Z,12.90
2023-05-04T07:08:41.867Z,13.00
2023-05-04T07:11:09.000Z,13.10
2023-05-04T07:13:35.979Z,13.20
2023-05-04T07:16:02.802Z,13.30
2023-05-04T07:18:29.491Z,13.50
2023-05-04T07:21:02.062Z,13.60
2023-05-04T07:23:43.373Z,13.70
2023-05-04T07:26:10.094Z,13.90
2023-05-04T07:28:36.828Z,14.10
2023-05-04T07:31:03.645Z,14.20
2023-05-04T07:33:30.729Z,14.50
2023-05-04T07:36:01.346Z,14.60
2023-05-04T07:38:28.094Z,14.70
2023-05-04T07:40:55.347Z,14.90
2023-05-04T07:43:22.979Z,15.10
2023-05-04T07:45:52.476Z,15.20
2023-05-04T07:48:19.748Z,15.40
2023-05-04T07:50:46.750Z,15.50
2023-05-04T07:53:13.841Z,15.60
2023-05-04T07:55:40.717Z,15.70
2023-05-04T07:58:07.391Z,15.80
2023-05-04T08:00:34.202Z,15.90
2023-05-04T08:03:00.940Z,16.10
2023-05-04T08:05:27.756Z,16.30
2023-05-04T08:07:54.656Z,16.30
2023-05-04T08:10:21.423Z,16.50
2023-05-04T08:12:48.161Z,16.70
2023-05-04T08:15:14.940Z,17.10
2023-05-04T08:17:42.200Z,17.50
2023-05-04T08:20:10.121Z,18.00
2023-05-04T08:22:37.237Z,18.50
2023-05-04T08:25:04.642Z,19.20
2023-05-04T08:27:31.604Z,20.00
2023-05-04T08:29:58.639Z,20.30
2023-05-04T08:32:25.462Z,20.30
2023-05-04T08:34:52.213Z,20.50
2023-05-04T08:37:20.054Z,20.60
2023-05-04T08:39:47.008Z,20.50
2023-05-04T08:42:13.908Z,20.60
2023-05-04T08:44:42.694Z,21.00
2023-05-04T08:47:10.548Z,21.10
2023-05-04T08:49:38.901Z,21.40
2023-05-04T08:52:08.602Z,21.80
2023-05-04T08:54:36.030Z,22.20
2023-05-04T08:57:04.347Z,22.40
2023-05-04T08:59:32.960Z,22.50
2023-05-04T09:02:00.894Z,22.20
2023-05-04T09:04:29.634Z,22.20
2023-05-04T09:06:57.840Z,22.40
2023-05-04T09:09:28.464Z,22.80
2023-05-04T09:11:55.360Z,22.80
2023-05-04T09:14:23.079Z,22.80
2023-05-04T09:16:49.896Z,23.10
2023-05-04T09:19:20.810Z,23.20
2023-05-04T09:21:49.295Z,23.20
2023-05-04T09:24:26.848Z,23.50
2023-05-04T09:26:53.617Z,23.50
2023-05-04T09:29:22.102Z,23.40
2023-05-04T09:31:50.806Z,23.50
2023-05-04T09:34:20.402Z,23.50
2023-05-04T09:37:02.108Z,23.90
2023-05-04T09:39:29.886Z,24.50
2023-05-04T09:41:56.759Z,24.70
2023-05-04T09:44:25.890Z,25.50
2023-05-04T09:46:58.705Z,26.20
2023-05-04T09:49:36.975Z,26.70
2023-05-04T09:52:05.695Z,26.50
2023-05-04T09:54:38.909Z,26.90
2023-05-04T09:57:11.985Z,26.60
2023-05-04T09:59:39.675Z,26.50
2023-05-04T10:02:18.193Z,26.00
2023-05-04T10:04:51.476Z,26.00
2023-05-04T10:07:19.155Z,26.50
2023-05-04T10:09:48.584Z,27.40
2023-05-04T10:12:15.318Z,27.60
2023-05-04T10:14:46.779Z,27.90
2023-05-04T10:17:40.368Z,27.50
2023-05-04T10:20:22.439Z,27.90
2023-05-04T10:23:03.749Z,28.30
2023-05-04T10:25:34.741Z,28.20
2023-05-04T10:28:31.699Z,28.00
2023-05-04T10:30:59.517Z,27.60
2023-05-04T10:33:37.290Z,27.70
2023-05-04T10:36:04.450Z,28.00
2023-05-04T10:38:37.577Z,27.90
2023-05-04T10:41:17.681Z,27.60
2023-05-04T10:43:53.645Z,27.90
2023-05-04T10:46:24.191Z,28.70
2023-05-04T10:48:51.525Z,29.60
2023-05-04T10:51:32.695Z,30.10
2023-05-04T10:54:05.859Z,29.70
2023-05-04T10:56:32.547Z,30.20
2023-05-04T10:59:08.841Z,31.00
2023-05-04T11:01:46.356Z,31.30
2023-05-04T11:04:22.525Z,30.80
2023-05-04T11:06:56.224Z,30.50
2023-05-04T11:09:23.464Z,30.70
2023-05-04T11:11:50.280Z,31.20
2023-05-04T11:14:28.900Z,32.00
2023-05-04T11:17:27.631Z,31.90
2023-05-04T11:19:55.606Z,31.10
2023-05-04T11:22:22.899Z,31.20
2023-05-04T11:24:50.003Z,31.20
2023-05-04T11:27:29.333Z,31.70
2023-05-04T11:30:01.014Z,31.20
2023-05-04T11:32:35.432Z,31.00
2023-05-04T11:35:03.981Z,31.00
2023-05-04T11:37:38.132Z,31.70
2023-05-04T11:40:14.988Z,32.20
2023-05-04T11:42:42.964Z,32.60
2023-05-04T11:45:34.292Z,33.00
2023-05-04T11:48:01.654Z,33.10
2023-05-04T11:50:29.596Z,32.50
2023-05-04T11:53:06.789Z,32.10
2023-05-04T11:55:34.820Z,31.80
2023-05-04T11:58:11.879Z,31.80
2023-05-04T12:00:45.439Z,31.90
2023-05-04T12:03:44.029Z,31.80
2023-05-04T12:06:18.871Z,31.90
2023-05-04T12:08:45.653Z,32.40
2023-05-04T12:11:20.425Z,32.50
2023-05-04T12:13:48.802Z,33.30
2023-05-04T12:16:20.641Z,33.80
2023-05-04T12:18:48.209Z,33.50
2023-05-04T12:21:15.944Z,33.30
2023-05-04T12:23:43.447Z,34.10
2023-05-04T12:26:11.617Z,35.10
2023-05-04T12:28:40.234Z,35.20
2023-05-04T12:31:07.392Z,34.70
2023-05-04T12:33:34.978Z,35.30
2023-05-04T12:36:03.406Z,35.40
2023-05-04T12:38:30.437Z,35.40
2023-05-04T12:41:03.229Z,34.60
2023-05-04T12:43:31.155Z,34.40
2023-05-04T12:45:58.172Z,34.80
2023-05-04T12:48:27.026Z,34.30
2023-05-04T12:50:53.871Z,34.60
2023-05-04T12:53:24.419Z,35.00
2023-05-04T12:55:51.258Z,34.40
2023-05-04T12:58:18.046Z,35.00
2023-05-04T13:00:46.102Z,34.90
2023-05-04T13:03:13.532Z,34.60
2023-05-04T13:05:40.557Z,33.90
2023-05-04T13:08:07.884Z,34.40
2023-05-04T13:10:34.723Z,34.50
2023-05-04T13:13:01.737Z,34.80
2023-05-04T13:15:28.550Z,35.20
2023-05-04T13:17:55.492Z,35.30
2023-05-04T13:20:22.774Z,35.10
2023-05-04T13:22:50.777Z,35.30
2023-05-04T13:25:18.523Z,35.10
2023-05-04T13:27:45.877Z,34.40
2023-05-04T13:30:12.974Z,34.20
2023-05-04T13:32:40.265Z,33.70
2023-05-04T13:35:08.182Z,34.30
2023-05-04T13:37:35.490Z,35.00
2023-05-04T13:40:02.984Z,34.30
2023-05-04T13:42:29.808Z,34.10
2023-05-04T13:44:57.338Z,34.30
2023-05-04T13:47:24.619Z,34.40
2023-05-04T13:49:51.464Z,34.80
2023-05-04T13:52:18.358Z,34.50
2023-05-04T13:54:45.487Z,34.30
2023-05-04T13:57:12.570Z,33.40
2023-05-04T13:59:39.578Z,32.50
2023-05-04T14:02:06.740Z,32.10
2023-05-04T14:04:33.847Z,32.10
2023-05-04T14:07:01.113Z,32.10
2023-05-04T14:09:30.825Z,32.80
2023-05-04T14:11:58.756Z,32.70
2023-05-04T14:14:25.629Z,32.50
2023-05-04T14:16:52.606Z,32.30
2023-05-04T14:19:19.768Z,32.40
2023-05-04T14:21:47.008Z,33.00
2023-05-04T14:24:13.871Z,33.20
2023-05-04T14:26:40.665Z,33.50
2023-05-04T14:29:07.487Z,33.60
2023-05-04T14:31:34.386Z,33.40
2023-05-04T14:34:01.216Z,33.00
2023-05-04T14:36:28.417Z,33.10
2023-05-04T14:38:55.652Z,33.50
2023-05-04T14:41:22.550Z,32.90
2023-05-04T14:43:49.314Z,33.10
2023-05-04T14:46:16.130Z,32.80
2023-05-04T14:48:42.916Z,32.90
2023-05-04T14:51:12.612Z,33.20
2023-05-04T14:53:41.353Z,33.40
2023-05-04T14:56:08.272Z,33.30
2023-05-04T14:58:35.068Z,33.30
2023-05-04T15:01:01.917Z,33.20
2023-05-04T15:03:29.246Z,33.00
2023-05-04T15:05:56.326Z,32.80
2023-05-04T15:08:23.317Z,32.70
2023-05-04T15:10:50.098Z,32.20
2023-05-04T15:13:18.072Z,31.70
2023-05-04T15:15:45.038Z,31.60
2023-05-04T15:18:12.214Z,31.40
2023-05-04T15:20:39.211Z,31.10
2023-05-04T15:23:11.813Z,31.10
2023-05-04T15:25:41.962Z,30.80
2023-05-04T15:28:12.679Z,30.50
2023-05-04T15:30:41.408Z,30.80
2023-05-04T15:33:08.726Z,31.20
2023-05-04T15:35:36.262Z,31.60
2023-05-04T15:38:03.373Z,32.00
2023-05-04T15:40:31.274Z,32.50
2023-05-04T15:42:58.117Z,32.70
2023-05-04T15:45:25.369Z,32.50
2023-05-04T15:47:54.192Z,32.20
2023-05-04T15:50:21.634Z,32.30
2023-05-04T15:52:48.383Z,32.20
2023-05-04T15:55:25.215Z,32.20
2023-05-04T15:57:54.114Z,32.10
2023-05-04T16:00:21.678Z,32.20
2023-05-04T16:02:48.750Z,31.90
2023-05-04T16:05:16.217Z,31.60
2023-05-04T16:07:43.112Z,31.80
2023-05-04T16:10:10.885Z,31.90
2023-05-04T16:12:41.350Z,32.10
2023-05-04T16:15:08.318Z,31.90
2023-05-04T16:17:35.447Z,31.80
2023-05-04T16:20:04.060Z,31.70
2023-05-04T16:22:31.914Z,31.50
2023-05-04T16:24:58.837Z,31.40
2023-05-04T16:27:27.158Z,31.10
2023-05-04T16:29:54.730Z,30.50
2023-05-04T16:32:21.843Z,29.90
2023-05-04T16:34:48.833Z,29.20
2023-05-04T16:37:17.657Z,28.60
2023-05-04T16:39:44.592Z,27.90
2023-05-04T16:42:11.914Z,27.50
2023-05-04T16:44:38.885Z,27.30
2023-05-04T16:47:07.256Z,27.10
2023-05-04T16:49:34.350Z,27.00
2023-05-04T16:52:02.276Z,26.70
2023-05-04T16:54:29.249Z,26.40
2023-05-04T16:56:56.229Z,26.20
2023-05-04T16:59:23.308Z,26.10
2023-05-04T17:01:50.396Z,25.90
2023-05-04T17:04:17.212Z,25.70
2023-05-04T17:06:43.998Z,25.50
2023-05-04T17:09:10.714Z,25.40
2023-05-04T17:11:37.580Z,25.10
2023-05-04T17:14:05.332Z,24.80
2023-05-04T17:16:32.356Z,24.70
2023-05-04T17:18:59.451Z,24.60
2023-05-04T17:21:26.363Z,24.50
2023-05-04T17:23:53.158Z,24.50
2023-05-04T17:26:20.357Z,24.50
2023-05-04T17:28:47.634Z,24.40
2023-05-04T17:31:16.180Z,24.30
2023-05-04T17:33:43.190Z,24.20
2023-05-04T17:36:11.932Z,24.00
2023-05-04T17:38:39.893Z,23.90
2023-05-04T17:41:09.798Z,23.80
2023-05-04T17:43:37.372Z,23.80
2023-05-04T17:46:04.746Z,23.70
2023-05-04T17:48:33.074Z,23.70
2023-05-04T17:51:00.268Z,23.60
2023-05-04T17:53:28.687Z,23.50
2023-05-04T17:55:56.031Z,23.40
2023-05-04T17:58:23.251Z,23.40
2023-05-04T18:00:52.780Z,23.30
2023-05-04T18:03:20.508Z,23.30
2023-05-04T18:05:48.692Z,23.30
2023-05-04T18:08:15.909Z,23.10
2023-05-04T18:10:43.014Z,23.00
2023-05-04T18:13:10.683Z,22.90
2023-05-04T18:15:38.303Z,22.80
2023-05-04T18:18:05.842Z,22.60
2023-05-04T18:20:33.097Z,22.50
2023-05-04T18:23:00.494Z,22.40
2023-05-04T18:25:28.573Z,22.20
2023-05-04T18:27:56.296Z,22.10
2023-05-04T18:30:23.875Z,21.90
2023-05-04T18:32:54.628Z,21.80
2023-05-04T18:35:23.880Z,21.60
2023-05-04T18:37:51.661Z,21.50
2023-05-04T18:40:19.084Z,21.30
2023-05-04T18:42:49.372Z,21.20
2023-05-04T18:45:16.811Z,21.00
2023-05-04T18:47:43.705Z,20.90
2023-05-04T18:50:11.135Z,20.80
2023-05-04T18:52:38.127Z,20.60
2023-05-04T18:55:05.841Z,20.40
2023-05-04T18:57:32.652Z,20.30
2023-05-04T18:59:59.399Z,20.20
2023-05-04T19:02:26.572Z,20.10
2023-05-04T19:04:53.523Z,19.90
2023-05-04T19:07:20.424Z,19.80
2023-05-04T19:09:47.136Z,19.60
2023-05-04T19:12:14.236Z,19.50
2023-05-04T19:14:43.281Z,19.40
2023-05-04T19:17:10.223Z,19.30
2023-05-04T19:19:37.825Z,19.20
2023-05-04T19:22:04.826Z,19.10
2023-05-04T19:24:34.347Z,19.00
2023-05-04T19:27:01.248Z,18.90
2023-05-04T19:29:28.401Z,18.80
2023-05-04T19:31:55.289Z,18.70
2023-05-04T19:34:22.095Z,18.60
2023-05-04T19:36:48.959Z,18.50
2023-05-04T19:39:16.895Z,18.40
2023-05-04T19:41:43.887Z,18.30
2023-05-04T19:44:12.013Z,18.20
2023-05-04T19:46:38.988Z,18.10
2023-05-04T19:49:05.843Z,18.00
2023-05-04T19:51:32.825Z,17.90
2023-05-04T19:53:59.880Z,17.80
2023-05-04T19:56:26.681Z,17.80
2023-05-04T19:58:53.637Z,17.70
2023-05-04T20:01:20.559Z,17.60
2023-05-04T20:03:47.458Z,17.60
2023-05-04T20:06:14.445Z,17.50
2023-05-04T20:08:41.316Z,17.50
2023-05-04T20:11:08.036Z,17.40
2023-05-04T20:13:34.815Z,17.30
2023-05-04T20:16:01.806Z,17.30
2023-05-04T20:18:28.704Z,17.20
2023-05-04T20:20:56.212Z,17.20
2023-05-04T20:23:23.080Z,17.10
2023-05-04T20:25:51.148Z,17.10
2023-05-04T20:28:17.898Z,17.00
2023-05-04T20:30:46.103Z,17.00
2023-05-04T20:33:12.848Z,16.90
2023-05-04T20:35:44.096Z,16.80
2023-05-04T20:38:11.221Z,16.70
2023-05-04T20:40:37.994Z,16.70
2023-05-04T20:43:05.129Z,16.60
2023-05-04T20:45:32.186Z,16.60
2023-05-04T20:47:59.114Z,16.50
2023-05-04T20:50:26.069Z,16.50
2023-05-04T20:52:52.830Z,16.50
2023-05-04T20:55:19.444Z,16.50
2023-05-04T20:57:46.336Z,16.40
2023-05-04T21:00:13.670Z,16.30
2023-05-04T21:02:40.387Z,16.30
2023-05-04T21:05:07.775Z,16.20
2023-05-04T21:07:34.458Z,16.20
2023-05-04T21:10:01.243Z,16.10
2023-05-04T21:12:27.886Z,16.00
2023-05-04T21:14:54.676Z,15.90
2023-05-04T21:17:21.368Z,15.90
2023-05-04T21:19:48.075Z,15.90
2023-05-04T21:22:17.464Z,15.80
2023-05-04T21:24:46.258Z,15.80
2023-05-04T21:27:13.374Z,15.80
2023-05-04T21:29:40.184Z,15.70
2023-05-04T21:32:06.916Z,15.70
2023-05-04T21:34:33.715Z,15.60
2023-05-04T21:37:00.387Z,15.60
2023-05-04T21:39:27.127Z,15.50
2023-05-04T21:41:53.812Z,15.50
2023-05-04T21:44:20.657Z,15.60
2023-05-04T21:46:47.415Z,15.50
2023-05-04T21:49:14.289Z,15.40
2023-05-04T21:51:42.561Z,15.40
2023-05-04T21:54:09.299Z,15.30
2023-05-04T21:56:36.657Z,15.30
2023-05-04T21:59:03.549Z,15.20
2023-05-04T22:01:30.974Z,15.10
2023-05-04T22:03:57.871Z,15.00
2023-05-04T22:06:24.808Z,15.00
2023-05-04T22:08:51.514Z,14.90
2023-05-04T22:11:18.506Z,14.80
2023-05-04T22:13:45.313Z,14.80
2023-05-04T22:16:12.127Z,14.80
2023-05-04T22:18:38.849Z,14.70
2023-05-04T22:21:05.712Z,14.70
2023-05-04T22:23:32.490Z,14.60
2023-05-04T22:25:59.208Z,14.60
2023-05-04T22:28:26.066Z,14.50
2023-05-04T22:30:52.867Z,14.50
2023-05-04T22:33:19.579Z,14.40
2023-05-04T22:35:46.511Z,14.30
2023-05-04T22:38:14.508Z,14.20
2023-05-04T22:40:42.945Z,14.10
2023-05-04T22:43:09.777Z,14.00
2023-05-04T22:45:36.823Z,13.90
2023-05-04T22:48:03.853Z,13.70
2023-05-04T22:50:30.717Z,13.70
2023-05-04T22:52:57.421Z,13.60
2023-05-04T22:55:24.696Z,13.60
2023-05-04T22:57:51.454Z,13.50
2023-05-04T23:00:18.465Z,13.50
2023-05-04T23:02:45.255Z,13.50
2023-05-04T23:05:12.949Z,13.40
2023-05-04T23:07:40.000Z,13.40
2023-05-04T23:10:07.893Z,13.30
2023-05-04T23:12:34.876Z,13.30
2023-05-04T23:15:01.834Z,13.30
2023-05-04T23:17:28.543Z,13.30
2023-05-04T23:19:55.476Z,13.30
2023-05-04T23:22:22.402Z,13.20
2023-05-04T23:24:49.108Z,13.30
2023-05-04T23:27:15.807Z,13.30
2023-05-04T23:29:42.555Z,13.30
2023-05-04T23:32:09.208Z,13.30
2023-05-04T23:34:36.304Z,13.30
2023-05-04T23:37:03.034Z,13.30
2023-05-04T23:39:30.158Z,13.30
2023-05-04T23:41:56.835Z,13.30
2023-05-04T23:44:23.556Z,13.40
2023-05-04T23:46:50.261Z,13.30
2023-05-04T23:49:17.095Z,13.40
2023-05-04T23:51:43.836Z,13.40
2023-05-04T23:54:10.670Z,13.40
2023-05-04T23:56:37.382Z,13.40
2023-05-04T23:59:04.409Z,13.40
